sensor_id;sensor_type;location;lat;lon;timestamp;temperature;humidity
7654;DHT22;3869;48.406;10.774;2022-08-03T00:01:34;17.90;99.90
7654;DHT22;3869;48.406;10.774;2022-08-03T00:04:02;17.90;99.90
7654;DHT22;3869;48.406;10.774;2022-08-03T00:06:31;17.90;99.90
7654;DHT22;3869;48.406;10.774;2022-08-03T00:09:04;17.90;99.90
7654;DHT22;3869;48.406;10.774;2022-08-03T00:11:34;17.90;99.90
7654;DHT22;3869;48.406;10.774;2022-08-03T00:14:03;17.90;99.90
7654;DHT22;3869;48.406;10.774;2022-08-03T00:16:31;17.90;99.90
7654;DHT22;3869;48.406;10.774;2022-08-03T00:18:59;17.80;99.90
7654;DHT22;3869;48.406;10.774;2022-08-03T00:21:28;17.80;99.90
7654;DHT22;3869;48.406;10.774;2022-08-03T00:23:56;17.80;99.90
7654;DHT22;3869;48.406;10.774;2022-08-03T00:26:24;17.80;99.90
7654;DHT22;3869;48.406;10.774;2022-08-03T00:28:53;17.80;99.90
7654;DHT22;3869;48.406;10.774;2022-08-03T00:31:21;17.80;99.90
7654;DHT22;3869;48.406;10.774;2022-08-03T00:34:08;17.80;99.90
7654;DHT22;3869;48.406;10.774;2022-08-03T00:36:38;17.80;99.90
7654;DHT22;3869;48.406;10.774;2022-08-03T00:39:06;17.70;99.90
7654;DHT22;3869;48.406;10.774;2022-08-03T00:41:34;17.70;99.90
7654;DHT22;3869;48.406;10.774;2022-08-03T00:44:04;17.70;99.90
7654;DHT22;3869;48.406;10.774;2022-08-03T00:46:32;17.60;99.90
7654;DHT22;3869;48.406;10.774;2022-08-03T00:49:00;17.60;99.90
7654;DHT22;3869;48.406;10.774;2022-08-03T00:51:28;17.60;99.90
7654;DHT22;3869;48.406;10.774;2022-08-03T00:53:56;17.60;99.90
7654;DHT22;3869;48.406;10.774;2022-08-03T00:56:25;17.60;99.90
7654;DHT22;3869;48.406;10.774;2022-08-03T00:58:54;17.50;99.90
7654;DHT22;3869;48.406;10.774;2022-08-03T01:01:24;17.50;99.90
7654;DHT22;3869;48.406;10.774;2022-08-03T01:03:58;17.50;99.90
7654;DHT22;3869;48.406;10.774;2022-08-03T01:06:35;17.40;99.90
7654;DHT22;3869;48.406;10.774;2022-08-03T01:09:10;17.50;99.90
7654;DHT22;3869;48.406;10.774;2022-08-03T01:11:45;17.50;99.90
7654;DHT22;3869;48.406;10.774;2022-08-03T01:14:33;17.40;99.90
7654;DHT22;3869;48.406;10.774;2022-08-03T01:17:10;17.40;99.90
7654;DHT22;3869;48.406;10.774;2022-08-03T01:19:44;17.40;99.90
7654;DHT22;3869;48.406;10.774;2022-08-03T01:22:29;17.30;99.90
7654;DHT22;3869;48.406;10.774;2022-08-03T01:25:05;17.30;99.90
7654;DHT22;3869;48.406;10.774;2022-08-03T01:27:47;17.30;99.90
7654;DHT22;3869;48.406;10.774;2022-08-03T01:30:20;17.30;99.90
7654;DHT22;3869;48.406;10.774;2022-08-03T01:32:53;17.30;99.90
7654;DHT22;3869;48.406;10.774;2022-08-03T01:35:31;17.40;99.90
7654;DHT22;3869;48.406;10.774;2022-08-03T01:38:08;17.30;99.90
7654;DHT22;3869;48.406;10.774;2022-08-03T01:40:56;17.20;99.90
7654;DHT22;3869;48.406;10.774;2022-08-03T01:43:26;17.10;99.90
7654;DHT22;3869;48.406;10.774;2022-08-03T01:46:17;17.00;99.90
7654;DHT22;3869;48.406;10.774;2022-08-03T01:48:47;17.00;99.90
7654;DHT22;3869;48.406;10.774;2022-08-03T01:51:18;17.00;99.90
7654;DHT22;3869;48.406;10.774;2022-08-03T01:53:48;17.10;99.90
7654;DHT22;3869;48.406;10.774;2022-08-03T01:56:18;17.10;99.90
7654;DHT22;3869;48.406;10.774;2022-08-03T01:58:47;17.00;99.90
7654;DHT22;3869;48.406;10.774;2022-08-03T02:01:20;16.90;99.90
7654;DHT22;3869;48.406;10.774;2022-08-03T02:03:49;17.00;99.90
7654;DHT22;3869;48.406;10.774;2022-08-03T02:06:27;17.00;99.90
7654;DHT22;3869;48.406;10.774;2022-08-03T02:09:16;17.00;99.90
7654;DHT22;3869;48.406;10.774;2022-08-03T02:11:46;17.10;99.90
7654;DHT22;3869;48.406;10.774;2022-08-03T02:14:16;17.10;99.90
7654;DHT22;3869;48.406;10.774;2022-08-03T02:16:48;17.00;99.90
7654;DHT22;3869;48.406;10.774;2022-08-03T02:19:17;16.90;99.90
7654;DHT22;3869;48.406;10.774;2022-08-03T02:21:46;16.90;99.90
7654;DHT22;3869;48.406;10.774;2022-08-03T02:24:27;17.00;99.90
7654;DHT22;3869;48.406;10.774;2022-08-03T02:26:56;17.00;99.90
7654;DHT22;3869;48.406;10.774;2022-08-03T02:29:33;16.90;99.90
7654;DHT22;3869;48.406;10.774;2022-08-03T02:32:09;16.90;99.90
7654;DHT22;3869;48.406;10.774;2022-08-03T02:34:40;16.90;99.90
7654;DHT22;3869;48.406;10.774;2022-08-03T02:37:09;16.90;99.90
7654;DHT22;3869;48.406;10.774;2022-08-03T02:39:39;16.90;99.90
7654;DHT22;3869;48.406;10.774;2022-08-03T02:42:09;17.00;99.90
7654;DHT22;3869;48.406;10.774;2022-08-03T02:44:39;17.00;99.90
7654;DHT22;3869;48.406;10.774;2022-08-03T02:47:15;16.90;99.90
7654;DHT22;3869;48.406;10.774;2022-08-03T02:49:47;16.90;99.90
7654;DHT22;3869;48.406;10.774;2022-08-03T02:52:19;16.90;99.90
7654;DHT22;3869;48.406;10.774;2022-08-03T02:54:52;16.90;99.90
7654;DHT22;3869;48.406;10.774;2022-08-03T02:57:22;16.90;99.90
7654;DHT22;3869;48.406;10.774;2022-08-03T02:59:52;16.80;99.90
7654;DHT22;3869;48.406;10.774;2022-08-03T03:02:22;16.80;99.90
7654;DHT22;3869;48.406;10.774;2022-08-03T03:04:52;16.80;99.90
7654;DHT22;3869;48.406;10.774;2022-08-03T03:07:42;16.80;99.90
7654;DHT22;3869;48.406;10.774;2022-08-03T03:10:20;16.70;99.90
7654;DHT22;3869;48.406;10.774;2022-08-03T03:12:49;16.60;99.90
7654;DHT22;3869;48.406;10.774;2022-08-03T03:15:19;16.60;99.90
7654;DHT22;3869;48.406;10.774;2022-08-03T03:17:49;16.60;99.90
7654;DHT22;3869;48.406;10.774;2022-08-03T03:20:20;16.60;99.90
7654;DHT22;3869;48.406;10.774;2022-08-03T03:22:57;16.70;99.90
7654;DHT22;3869;48.406;10.774;2022-08-03T03:25:27;16.70;99.90
7654;DHT22;3869;48.406;10.774;2022-08-03T03:27:57;16.70;99.90
7654;DHT22;3869;48.406;10.774;2022-08-03T03:30:27;16.60;99.90
7654;DHT22;3869;48.406;10.774;2022-08-03T03:32:58;16.60;99.90
7654;DHT22;3869;48.406;10.774;2022-08-03T03:35:26;16.60;99.90
7654;DHT22;3869;48.406;10.774;2022-08-03T03:37:56;16.60;99.90
7654;DHT22;3869;48.406;10.774;2022-08-03T03:40:24;16.60;99.90
7654;DHT22;3869;48.406;10.774;2022-08-03T03:42:52;16.60;99.90
7654;DHT22;3869;48.406;10.774;2022-08-03T03:45:20;16.60;99.90
7654;DHT22;3869;48.406;10.774;2022-08-03T03:47:49;16.60;99.90
7654;DHT22;3869;48.406;10.774;2022-08-03T03:50:18;16.60;99.90
7654;DHT22;3869;48.406;10.774;2022-08-03T03:52:47;16.60;99.90
7654;DHT22;3869;48.406;10.774;2022-08-03T03:55:15;16.60;99.90
7654;DHT22;3869;48.406;10.774;2022-08-03T03:57:44;16.60;99.90
7654;DHT22;3869;48.406;10.774;2022-08-03T04:00:14;16.60;99.90
7654;DHT22;3869;48.406;10.774;2022-08-03T04:02:43;16.60;99.90
7654;DHT22;3869;48.406;10.774;2022-08-03T04:05:11;16.50;99.90
7654;DHT22;3869;48.406;10.774;2022-08-03T04:08:00;16.40;99.90
7654;DHT22;3869;48.406;10.774;2022-08-03T04:10:55;16.40;99.90
7654;DHT22;3869;48.406;10.774;2022-08-03T04:13:32;16.40;99.90
7654;DHT22;3869;48.406;10.774;2022-08-03T04:16:02;16.40;99.90
7654;DHT22;3869;48.406;10.774;2022-08-03T04:18:33;16.40;99.90
7654;DHT22;3869;48.406;10.774;2022-08-03T04:21:06;16.40;99.90
7654;DHT22;3869;48.406;10.774;2022-08-03T04:23:39;16.40;99.90
7654;DHT22;3869;48.406;10.774;2022-08-03T04:26:11;16.30;99.90
7654;DHT22;3869;48.406;10.774;2022-08-03T04:28:41;16.30;99.90
7654;DHT22;3869;48.406;10.774;2022-08-03T04:31:10;16.30;99.90
7654;DHT22;3869;48.406;10.774;2022-08-03T04:33:40;16.30;99.90
7654;DHT22;3869;48.406;10.774;2022-08-03T04:36:15;16.40;99.90
7654;DHT22;3869;48.406;10.774;2022-08-03T04:38:54;16.50;99.90
7654;DHT22;3869;48.406;10.774;2022-08-03T04:41:24;16.40;99.90
7654;DHT22;3869;48.406;10.774;2022-08-03T04:43:54;16.50;99.90
7654;DHT22;3869;48.406;10.774;2022-08-03T04:46:25;16.50;99.90
7654;DHT22;3869;48.406;10.774;2022-08-03T04:48:54;16.40;99.90
7654;DHT22;3869;48.406;10.774;2022-08-03T04:51:22;16.40;99.90
7654;DHT22;3869;48.406;10.774;2022-08-03T04:53:53;16.50;99.90
7654;DHT22;3869;48.406;10.774;2022-08-03T04:56:21;16.50;99.90
7654;DHT22;3869;48.406;10.774;2022-08-03T04:58:49;16.60;99.90
7654;DHT22;3869;48.406;10.774;2022-08-03T05:01:18;16.60;99.90
7654;DHT22;3869;48.406;10.774;2022-08-03T05:03:46;16.50;99.90
7654;DHT22;3869;48.406;10.774;2022-08-03T05:06:14;16.70;99.90
7654;DHT22;3869;48.406;10.774;2022-08-03T05:08:42;16.70;99.90
7654;DHT22;3869;48.406;10.774;2022-08-03T05:11:17;16.80;99.90
7654;DHT22;3869;48.406;10.774;2022-08-03T05:13:46;16.90;99.90
7654;DHT22;3869;48.406;10.774;2022-08-03T05:16:14;16.90;99.90
7654;DHT22;3869;48.406;10.774;2022-08-03T05:18:42;16.90;99.90
7654;DHT22;3869;48.406;10.774;2022-08-03T05:21:11;17.10;99.90
7654;DHT22;3869;48.406;10.774;2022-08-03T05:23:39;17.10;99.90
7654;DHT22;3869;48.406;10.774;2022-08-03T05:26:07;17.20;99.90
7654;DHT22;3869;48.406;10.774;2022-08-03T05:28:38;17.30;99.90
7654;DHT22;3869;48.406;10.774;2022-08-03T05:31:17;17.40;99.90
7654;DHT22;3869;48.406;10.774;2022-08-03T05:33:45;17.50;99.90
7654;DHT22;3869;48.406;10.774;2022-08-03T05:36:14;17.60;99.90
7654;DHT22;3869;48.406;10.774;2022-08-03T05:38:42;17.80;99.90
7654;DHT22;3869;48.406;10.774;2022-08-03T05:41:10;17.90;99.90
7654;DHT22;3869;48.406;10.774;2022-08-03T05:43:51;18.00;99.90
7654;DHT22;3869;48.406;10.774;2022-08-03T05:46:20;18.10;99.90
7654;DHT22;3869;48.406;10.774;2022-08-03T05:48:50;18.20;99.90
7654;DHT22;3869;48.406;10.774;2022-08-03T05:51:18;18.30;99.90
7654;DHT22;3869;48.406;10.774;2022-08-03T05:53:46;18.40;99.90
7654;DHT22;3869;48.406;10.774;2022-08-03T05:56:14;18.50;99.90
7654;DHT22;3869;48.406;10.774;2022-08-03T05:58:44;18.60;99.90
7654;DHT22;3869;48.406;10.774;2022-08-03T06:01:14;18.70;99.90
7654;DHT22;3869;48.406;10.774;2022-08-03T06:03:43;18.80;99.90
7654;DHT22;3869;48.406;10.774;2022-08-03T06:06:11;18.80;99.90
7654;DHT22;3869;48.406;10.774;2022-08-03T06:08:39;19.00;99.90
7654;DHT22;3869;48.406;10.774;2022-08-03T06:11:08;19.00;99.90
7654;DHT22;3869;48.406;10.774;2022-08-03T06:13:36;19.10;99.90
7654;DHT22;3869;48.406;10.774;2022-08-03T06:16:05;19.20;99.90
7654;DHT22;3869;48.406;10.774;2022-08-03T06:18:35;19.30;99.90
7654;DHT22;3869;48.406;10.774;2022-08-03T06:21:03;19.40;99.90
7654;DHT22;3869;48.406;10.774;2022-08-03T06:23:42;19.50;99.90
7654;DHT22;3869;48.406;10.774;2022-08-03T06:26:22;19.60;99.90
7654;DHT22;3869;48.406;10.774;2022-08-03T06:28:51;19.70;99.90
7654;DHT22;3869;48.406;10.774;2022-08-03T06:31:21;19.80;99.90
7654;DHT22;3869;48.406;10.774;2022-08-03T06:34:01;19.90;99.90
7654;DHT22;3869;48.406;10.774;2022-08-03T06:36:49;20.00;99.90
7654;DHT22;3869;48.406;10.774;2022-08-03T06:39:18;20.10;99.90
7654;DHT22;3869;48.406;10.774;2022-08-03T06:41:50;20.20;99.90
7654;DHT22;3869;48.406;10.774;2022-08-03T06:44:18;20.30;99.90
7654;DHT22;3869;48.406;10.774;2022-08-03T06:46:46;20.40;99.90
7654;DHT22;3869;48.406;10.774;2022-08-03T06:49:15;20.50;99.90
7654;DHT22;3869;48.406;10.774;2022-08-03T06:51:45;20.60;99.90
7654;DHT22;3869;48.406;10.774;2022-08-03T06:54:33;20.70;99.90
7654;DHT22;3869;48.406;10.774;2022-08-03T06:57:01;20.80;99.90
7654;DHT22;3869;48.406;10.774;2022-08-03T06:59:29;21.00;99.90
7654;DHT22;3869;48.406;10.774;2022-08-03T07:02:17;21.10;99.90
7654;DHT22;3869;48.406;10.774;2022-08-03T07:04:48;21.20;99.90
7654;DHT22;3869;48.406;10.774;2022-08-03T07:07:16;21.30;99.90
7654;DHT22;3869;48.406;10.774;2022-08-03T07:09:45;21.40;99.90
7654;DHT22;3869;48.406;10.774;2022-08-03T07:12:23;21.50;99.90
7654;DHT22;3869;48.406;10.774;2022-08-03T07:14:51;21.60;99.90
7654;DHT22;3869;48.406;10.774;2022-08-03T07:17:26;21.60;99.90
7654;DHT22;3869;48.406;10.774;2022-08-03T07:19:56;21.70;99.90
7654;DHT22;3869;48.406;10.774;2022-08-03T07:22:24;21.80;99.90
7654;DHT22;3869;48.406;10.774;2022-08-03T07:24:52;21.90;99.90
7654;DHT22;3869;48.406;10.774;2022-08-03T07:27:20;21.90;99.90
7654;DHT22;3869;48.406;10.774;2022-08-03T07:29:48;22.10;99.90
7654;DHT22;3869;48.406;10.774;2022-08-03T07:32:16;22.20;99.90
7654;DHT22;3869;48.406;10.774;2022-08-03T07:34:44;22.30;99.90
7654;DHT22;3869;48.406;10.774;2022-08-03T07:37:14;22.30;99.90
7654;DHT22;3869;48.406;10.774;2022-08-03T07:39:42;22.40;99.90
7654;DHT22;3869;48.406;10.774;2022-08-03T07:42:10;22.60;99.90
7654;DHT22;3869;48.406;10.774;2022-08-03T07:44:38;22.60;99.90
7654;DHT22;3869;48.406;10.774;2022-08-03T07:47:06;22.70;99.90
7654;DHT22;3869;48.406;10.774;2022-08-03T07:49:38;22.70;99.90
7654;DHT22;3869;48.406;10.774;2022-08-03T07:52:06;22.80;99.90
7654;DHT22;3869;48.406;10.774;2022-08-03T07:54:55;22.90;99.90
7654;DHT22;3869;48.406;10.774;2022-08-03T07:57:23;23.00;99.90
7654;DHT22;3869;48.406;10.774;2022-08-03T07:59:51;23.10;99.90
7654;DHT22;3869;48.406;10.774;2022-08-03T08:02:27;23.20;99.90
7654;DHT22;3869;48.406;10.774;2022-08-03T08:04:56;23.20;99.90
7654;DHT22;3869;48.406;10.774;2022-08-03T08:07:30;23.30;99.90
7654;DHT22;3869;48.406;10.774;2022-08-03T08:10:00;23.30;99.90
7654;DHT22;3869;48.406;10.774;2022-08-03T08:12:28;23.50;99.90
7654;DHT22;3869;48.406;10.774;2022-08-03T08:14:56;23.60;99.90
7654;DHT22;3869;48.406;10.774;2022-08-03T08:17:24;23.60;99.90
7654;DHT22;3869;48.406;10.774;2022-08-03T08:19:51;23.80;99.90
7654;DHT22;3869;48.406;10.774;2022-08-03T08:22:20;23.80;99.90
7654;DHT22;3869;48.406;10.774;2022-08-03T08:24:55;23.90;99.90
7654;DHT22;3869;48.406;10.774;2022-08-03T08:27:25;24.00;99.90
7654;DHT22;3869;48.406;10.774;2022-08-03T08:29:53;24.10;99.90
7654;DHT22;3869;48.406;10.774;2022-08-03T08:32:30;24.20;99.90
7654;DHT22;3869;48.406;10.774;2022-08-03T08:34:58;24.30;99.90
7654;DHT22;3869;48.406;10.774;2022-08-03T08:37:26;24.40;99.60
7654;DHT22;3869;48.406;10.774;2022-08-03T08:39:55;24.50;99.20
7654;DHT22;3869;48.406;10.774;2022-08-03T08:42:24;24.60;98.90
7654;DHT22;3869;48.406;10.774;2022-08-03T08:44:52;24.60;99.00
7654;DHT22;3869;48.406;10.774;2022-08-03T08:47:23;24.70;99.50
7654;DHT22;3869;48.406;10.774;2022-08-03T08:49:52;24.80;99.60
7654;DHT22;3869;48.406;10.774;2022-08-03T08:52:38;24.80;99.60
7654;DHT22;3869;48.406;10.774;2022-08-03T08:55:09;24.80;99.50
7654;DHT22;3869;48.406;10.774;2022-08-03T08:57:45;24.90;98.40
7654;DHT22;3869;48.406;10.774;2022-08-03T09:00:15;24.90;97.70
7654;DHT22;3869;48.406;10.774;2022-08-03T09:02:44;25.00;97.20
7654;DHT22;3869;48.406;10.774;2022-08-03T09:05:14;25.10;96.80
7654;DHT22;3869;48.406;10.774;2022-08-03T09:07:43;25.20;97.50
7654;DHT22;3869;48.406;10.774;2022-08-03T09:10:12;25.30;97.60
7654;DHT22;3869;48.406;10.774;2022-08-03T09:12:44;25.30;97.30
7654;DHT22;3869;48.406;10.774;2022-08-03T09:15:21;25.40;97.00
7654;DHT22;3869;48.406;10.774;2022-08-03T09:17:51;25.40;96.70
7654;DHT22;3869;48.406;10.774;2022-08-03T09:20:20;25.50;97.00
7654;DHT22;3869;48.406;10.774;2022-08-03T09:22:52;25.60;96.50
7654;DHT22;3869;48.406;10.774;2022-08-03T09:25:30;25.60;96.30
7654;DHT22;3869;48.406;10.774;2022-08-03T09:28:08;25.70;96.30
7654;DHT22;3869;48.406;10.774;2022-08-03T09:30:38;25.70;96.50
7654;DHT22;3869;48.406;10.774;2022-08-03T09:33:07;25.80;96.50
7654;DHT22;3869;48.406;10.774;2022-08-03T09:35:40;25.80;96.30
7654;DHT22;3869;48.406;10.774;2022-08-03T09:38:24;25.80;95.40
7654;DHT22;3869;48.406;10.774;2022-08-03T09:40:54;25.90;94.60
7654;DHT22;3869;48.406;10.774;2022-08-03T09:43:27;26.00;93.30
7654;DHT22;3869;48.406;10.774;2022-08-03T09:46:02;26.10;93.40
7654;DHT22;3869;48.406;10.774;2022-08-03T09:48:31;26.10;93.50
7654;DHT22;3869;48.406;10.774;2022-08-03T09:51:02;26.20;94.10
7654;DHT22;3869;48.406;10.774;2022-08-03T09:53:42;26.20;93.60
7654;DHT22;3869;48.406;10.774;2022-08-03T09:56:40;26.30;92.90
7654;DHT22;3869;48.406;10.774;2022-08-03T09:59:10;26.30;92.40
7654;DHT22;3869;48.406;10.774;2022-08-03T10:01:39;26.30;92.00
7654;DHT22;3869;48.406;10.774;2022-08-03T10:04:11;26.40;92.30
7654;DHT22;3869;48.406;10.774;2022-08-03T10:06:40;26.40;91.80
7654;DHT22;3869;48.406;10.774;2022-08-03T10:09:09;26.50;90.70
7654;DHT22;3869;48.406;10.774;2022-08-03T10:11:39;26.50;91.00
7654;DHT22;3869;48.406;10.774;2022-08-03T10:14:10;26.70;90.20
7654;DHT22;3869;48.406;10.774;2022-08-03T10:16:45;26.70;90.20
7654;DHT22;3869;48.406;10.774;2022-08-03T10:19:14;26.80;90.00
7654;DHT22;3869;48.406;10.774;2022-08-03T10:21:49;26.90;89.30
7654;DHT22;3869;48.406;10.774;2022-08-03T10:24:24;27.00;90.10
7654;DHT22;3869;48.406;10.774;2022-08-03T10:26:58;27.00;90.90
7654;DHT22;3869;48.406;10.774;2022-08-03T10:29:32;27.00;87.60
7654;DHT22;3869;48.406;10.774;2022-08-03T10:32:08;27.10;88.70
7654;DHT22;3869;48.406;10.774;2022-08-03T10:34:39;27.00;85.10
7654;DHT22;3869;48.406;10.774;2022-08-03T10:37:11;27.20;86.00
7654;DHT22;3869;48.406;10.774;2022-08-03T10:39:43;27.20;86.80
7654;DHT22;3869;48.406;10.774;2022-08-03T10:42:20;27.30;85.40
7654;DHT22;3869;48.406;10.774;2022-08-03T10:45:02;27.30;83.10
7654;DHT22;3869;48.406;10.774;2022-08-03T10:47:31;27.40;82.90
7654;DHT22;3869;48.406;10.774;2022-08-03T10:50:00;27.50;82.50
7654;DHT22;3869;48.406;10.774;2022-08-03T10:52:28;27.50;80.40
7654;DHT22;3869;48.406;10.774;2022-08-03T10:55:28;27.50;81.70
7654;DHT22;3869;48.406;10.774;2022-08-03T10:58:14;27.70;83.70
7654;DHT22;3869;48.406;10.774;2022-08-03T11:00:57;27.70;84.00
7654;DHT22;3869;48.406;10.774;2022-08-03T11:03:25;27.70;86.30
7654;DHT22;3869;48.406;10.774;2022-08-03T11:06:13;27.80;87.10
7654;DHT22;3869;48.406;10.774;2022-08-03T11:08:42;27.80;83.50
7654;DHT22;3869;48.406;10.774;2022-08-03T11:11:26;27.90;84.60
7654;DHT22;3869;48.406;10.774;2022-08-03T11:13:59;28.00;85.00
7654;DHT22;3869;48.406;10.774;2022-08-03T11:16:31;28.00;83.10
7654;DHT22;3869;48.406;10.774;2022-08-03T11:19:02;28.10;80.30
7654;DHT22;3869;48.406;10.774;2022-08-03T11:21:53;28.20;80.10
7654;DHT22;3869;48.406;10.774;2022-08-03T11:24:55;28.20;79.00
7654;DHT22;3869;48.406;10.774;2022-08-03T11:27:25;28.30;78.30
7654;DHT22;3869;48.406;10.774;2022-08-03T11:29:54;28.30;78.10
7654;DHT22;3869;48.406;10.774;2022-08-03T11:32:58;28.40;79.60
7654;DHT22;3869;48.406;10.774;2022-08-03T11:35:28;28.60;81.60
7654;DHT22;3869;48.406;10.774;2022-08-03T11:38:04;28.70;80.80
7654;DHT22;3869;48.406;10.774;2022-08-03T11:40:35;28.60;78.10
7654;DHT22;3869;48.406;10.774;2022-08-03T11:43:04;28.70;78.40
7654;DHT22;3869;48.406;10.774;2022-08-03T11:45:32;28.70;75.80
7654;DHT22;3869;48.406;10.774;2022-08-03T11:48:13;28.80;78.80
7654;DHT22;3869;48.406;10.774;2022-08-03T11:50:42;29.00;80.10
7654;DHT22;3869;48.406;10.774;2022-08-03T11:53:15;29.00;80.30
7654;DHT22;3869;48.406;10.774;2022-08-03T11:55:46;29.10;79.80
7654;DHT22;3869;48.406;10.774;2022-08-03T11:58:17;29.20;78.90
7654;DHT22;3869;48.406;10.774;2022-08-03T12:01:05;29.30;75.90
7654;DHT22;3869;48.406;10.774;2022-08-03T12:03:35;29.30;74.70
7654;DHT22;3869;48.406;10.774;2022-08-03T12:06:08;29.40;77.70
7654;DHT22;3869;48.406;10.774;2022-08-03T12:08:36;29.60;78.40
7654;DHT22;3869;48.406;10.774;2022-08-03T12:11:06;29.60;77.70
7654;DHT22;3869;48.406;10.774;2022-08-03T12:13:37;29.60;76.50
7654;DHT22;3869;48.406;10.774;2022-08-03T12:16:25;29.70;75.60
7654;DHT22;3869;48.406;10.774;2022-08-03T12:18:58;29.70;74.80
7654;DHT22;3869;48.406;10.774;2022-08-03T12:21:27;29.60;71.00
7654;DHT22;3869;48.406;10.774;2022-08-03T12:23:56;29.70;73.50
7654;DHT22;3869;48.406;10.774;2022-08-03T12:26:26;29.80;73.10
7654;DHT22;3869;48.406;10.774;2022-08-03T12:28:55;29.80;73.70
7654;DHT22;3869;48.406;10.774;2022-08-03T12:31:24;29.90;74.70
7654;DHT22;3869;48.406;10.774;2022-08-03T12:33:58;29.90;75.50
7654;DHT22;3869;48.406;10.774;2022-08-03T12:36:28;30.00;75.40
7654;DHT22;3869;48.406;10.774;2022-08-03T12:38:58;30.00;71.00
7654;DHT22;3869;48.406;10.774;2022-08-03T12:41:28;29.90;69.00
7654;DHT22;3869;48.406;10.774;2022-08-03T12:43:56;29.70;68.90
7654;DHT22;3869;48.406;10.774;2022-08-03T12:46:30;29.60;68.80
7654;DHT22;3869;48.406;10.774;2022-08-03T12:49:01;29.60;69.50
7654;DHT22;3869;48.406;10.774;2022-08-03T12:51:31;29.50;68.70
7654;DHT22;3869;48.406;10.774;2022-08-03T12:54:01;29.50;69.30
7654;DHT22;3869;48.406;10.774;2022-08-03T12:56:29;29.60;69.60
7654;DHT22;3869;48.406;10.774;2022-08-03T12:58:57;29.70;69.50
7654;DHT22;3869;48.406;10.774;2022-08-03T13:01:25;29.80;69.10
7654;DHT22;3869;48.406;10.774;2022-08-03T13:03:57;29.90;71.30
7654;DHT22;3869;48.406;10.774;2022-08-03T13:06:28;30.00;69.60
7654;DHT22;3869;48.406;10.774;2022-08-03T13:09:04;30.10;69.10
7654;DHT22;3869;48.406;10.774;2022-08-03T13:11:33;30.20;69.60
7654;DHT22;3869;48.406;10.774;2022-08-03T13:14:21;30.30;69.80
7654;DHT22;3869;48.406;10.774;2022-08-03T13:16:49;30.40;68.30
7654;DHT22;3869;48.406;10.774;2022-08-03T13:19:17;30.40;65.60
7654;DHT22;3869;48.406;10.774;2022-08-03T13:21:47;30.40;63.60
7654;DHT22;3869;48.406;10.774;2022-08-03T13:24:30;30.40;62.60
7654;DHT22;3869;48.406;10.774;2022-08-03T13:26:59;30.40;63.30
7654;DHT22;3869;48.406;10.774;2022-08-03T13:29:48;30.50;63.90
7654;DHT22;3869;48.406;10.774;2022-08-03T13:32:16;30.70;65.40
7654;DHT22;3869;48.406;10.774;2022-08-03T13:34:44;30.70;65.80
7654;DHT22;3869;48.406;10.774;2022-08-03T13:37:13;30.70;64.40
7654;DHT22;3869;48.406;10.774;2022-08-03T13:39:42;30.50;63.00
7654;DHT22;3869;48.406;10.774;2022-08-03T13:42:26;30.50;61.90
7654;DHT22;3869;48.406;10.774;2022-08-03T13:44:54;30.40;63.10
7654;DHT22;3869;48.406;10.774;2022-08-03T13:47:22;30.40;62.00
7654;DHT22;3869;48.406;10.774;2022-08-03T13:49:50;30.40;63.50
7654;DHT22;3869;48.406;10.774;2022-08-03T13:52:29;30.40;62.20
7654;DHT22;3869;48.406;10.774;2022-08-03T13:54:57;30.50;62.50
7654;DHT22;3869;48.406;10.774;2022-08-03T13:57:26;30.50;61.60
7654;DHT22;3869;48.406;10.774;2022-08-03T14:00:15;30.60;61.90
7654;DHT22;3869;48.406;10.774;2022-08-03T14:02:55;30.70;61.90
7654;DHT22;3869;48.406;10.774;2022-08-03T14:05:41;30.70;62.30
7654;DHT22;3869;48.406;10.774;2022-08-03T14:08:11;30.80;63.20
7654;DHT22;3869;48.406;10.774;2022-08-03T14:10:42;30.90;63.60
7654;DHT22;3869;48.406;10.774;2022-08-03T14:13:11;31.00;64.60
7654;DHT22;3869;48.406;10.774;2022-08-03T14:15:44;31.00;63.40
7654;DHT22;3869;48.406;10.774;2022-08-03T14:18:16;31.10;61.60
7654;DHT22;3869;48.406;10.774;2022-08-03T14:21:00;31.10;63.80
7654;DHT22;3869;48.406;10.774;2022-08-03T14:23:34;31.10;59.60
7654;DHT22;3869;48.406;10.774;2022-08-03T14:26:03;31.10;61.60
7654;DHT22;3869;48.406;10.774;2022-08-03T14:28:31;31.00;60.60
7654;DHT22;3869;48.406;10.774;2022-08-03T14:31:00;31.00;60.10
7654;DHT22;3869;48.406;10.774;2022-08-03T14:33:28;30.90;59.20
7654;DHT22;3869;48.406;10.774;2022-08-03T14:35:56;31.00;60.60
7654;DHT22;3869;48.406;10.774;2022-08-03T14:38:24;31.00;60.60
7654;DHT22;3869;48.406;10.774;2022-08-03T14:40:53;30.90;58.30
7654;DHT22;3869;48.406;10.774;2022-08-03T14:43:21;30.80;58.80
7654;DHT22;3869;48.406;10.774;2022-08-03T14:45:51;30.80;58.90
7654;DHT22;3869;48.406;10.774;2022-08-03T14:48:20;30.70;59.00
7654;DHT22;3869;48.406;10.774;2022-08-03T14:51:08;30.70;58.80
7654;DHT22;3869;48.406;10.774;2022-08-03T14:53:36;30.70;59.20
7654;DHT22;3869;48.406;10.774;2022-08-03T14:56:05;30.70;60.40
7654;DHT22;3869;48.406;10.774;2022-08-03T14:58:37;30.60;57.70
7654;DHT22;3869;48.406;10.774;2022-08-03T15:01:05;30.60;59.00
7654;DHT22;3869;48.406;10.774;2022-08-03T15:03:54;30.60;59.40
7654;DHT22;3869;48.406;10.774;2022-08-03T15:06:22;30.60;58.80
7654;DHT22;3869;48.406;10.774;2022-08-03T15:08:50;30.50;57.40
7654;DHT22;3869;48.406;10.774;2022-08-03T15:11:39;30.60;59.10
7654;DHT22;3869;48.406;10.774;2022-08-03T15:14:07;30.50;57.80
7654;DHT22;3869;48.406;10.774;2022-08-03T15:16:35;30.60;58.20
7654;DHT22;3869;48.406;10.774;2022-08-03T15:19:03;30.60;58.50
7654;DHT22;3869;48.406;10.774;2022-08-03T15:21:51;30.60;59.60
7654;DHT22;3869;48.406;10.774;2022-08-03T15:24:19;30.50;58.30
7654;DHT22;3869;48.406;10.774;2022-08-03T15:26:49;30.50;58.00
7654;DHT22;3869;48.406;10.774;2022-08-03T15:29:17;30.50;58.70
7654;DHT22;3869;48.406;10.774;2022-08-03T15:32:05;30.50;58.80
7654;DHT22;3869;48.406;10.774;2022-08-03T15:34:35;30.50;58.80
7654;DHT22;3869;48.406;10.774;2022-08-03T15:37:03;30.50;58.80
7654;DHT22;3869;48.406;10.774;2022-08-03T15:39:48;30.50;59.00
7654;DHT22;3869;48.406;10.774;2022-08-03T15:42:27;30.40;57.40
7654;DHT22;3869;48.406;10.774;2022-08-03T15:44:55;30.40;58.80
7654;DHT22;3869;48.406;10.774;2022-08-03T15:47:23;30.40;58.90
7654;DHT22;3869;48.406;10.774;2022-08-03T15:49:51;30.40;59.90
7654;DHT22;3869;48.406;10.774;2022-08-03T15:52:19;30.40;59.50
7654;DHT22;3869;48.406;10.774;2022-08-03T15:54:47;30.30;58.10
7654;DHT22;3869;48.406;10.774;2022-08-03T15:57:15;30.20;57.80
7654;DHT22;3869;48.406;10.774;2022-08-03T15:59:44;30.20;59.30
7654;DHT22;3869;48.406;10.774;2022-08-03T16:02:12;30.20;59.20
7654;DHT22;3869;48.406;10.774;2022-08-03T16:04:40;30.20;57.70
7654;DHT22;3869;48.406;10.774;2022-08-03T16:07:08;30.10;56.60
7654;DHT22;3869;48.406;10.774;2022-08-03T16:09:38;30.10;57.30
7654;DHT22;3869;48.406;10.774;2022-08-03T16:12:09;30.10;57.40
7654;DHT22;3869;48.406;10.774;2022-08-03T16:14:42;30.10;57.20
7654;DHT22;3869;48.406;10.774;2022-08-03T16:17:20;30.00;56.10